sensor_id;sensor_type;location;lat;lon;timestamp;temperature;humidity
3684;DHT22;1858;48.716;9.648;2022-09-13T00:01:12;16.20;99.90
3684;DHT22;1858;48.716;9.648;2022-09-13T00:03:40;16.20;99.90
3684;DHT22;1858;48.716;9.648;2022-09-13T00:06:08;16.10;99.90
3684;DHT22;1858;48.716;9.648;2022-09-13T00:08:36;16.10;99.90
3684;DHT22;1858;48.716;9.648;2022-09-13T00:11:04;16.10;99.90
3684;DHT22;1858;48.716;9.648;2022-09-13T00:13:32;16.10;99.90
3684;DHT22;1858;48.716;9.648;2022-09-13T00:19:07;16.10;99.90
3684;DHT22;1858;48.716;9.648;2022-09-13T00:21:34;16.00;99.90
3684;DHT22;1858;48.716;9.648;2022-09-13T00:24:02;16.00;99.90
3684;DHT22;1858;48.716;9.648;2022-09-13T00:26:30;16.10;99.90
3684;DHT22;1858;48.716;9.648;2022-09-13T00:28:57;16.20;99.90
3684;DHT22;1858;48.716;9.648;2022-09-13T00:31:26;16.20;99.90
3684;DHT22;1858;48.716;9.648;2022-09-13T00:34:13;16.20;99.90
3684;DHT22;1858;48.716;9.648;2022-09-13T00:36:41;16.20;99.90
3684;DHT22;1858;48.716;9.648;2022-09-13T00:39:09;16.30;99.90
3684;DHT22;1858;48.716;9.648;2022-09-13T00:41:37;16.20;92.10
3684;DHT22;1858;48.716;9.648;2022-09-13T00:44:05;16.20;99.90
3684;DHT22;1858;48.716;9.648;2022-09-13T00:49:31;16.10;99.90
3684;DHT22;1858;48.716;9.648;2022-09-13T00:52:00;16.20;99.90
3684;DHT22;1858;48.716;9.648;2022-09-13T00:54:28;16.30;77.90
3684;DHT22;1858;48.716;9.648;2022-09-13T00:57:15;16.30;65.10
3684;DHT22;1858;48.716;9.648;2022-09-13T00:59:46;16.30;77.70
3684;DHT22;1858;48.716;9.648;2022-09-13T01:02:13;16.30;76.70
3684;DHT22;1858;48.716;9.648;2022-09-13T01:04:42;16.20;69.90
3684;DHT22;1858;48.716;9.648;2022-09-13T01:07:11;16.30;56.40
3684;DHT22;1858;48.716;9.648;2022-09-13T01:09:41;16.30;51.30
3684;DHT22;1858;48.716;9.648;2022-09-13T01:12:16;16.20;56.20
3684;DHT22;1858;48.716;9.648;2022-09-13T01:14:45;16.20;83.00
3684;DHT22;1858;48.716;9.648;2022-09-13T01:17:14;16.20;79.00
3684;DHT22;1858;48.716;9.648;2022-09-13T01:19:41;16.20;84.80
3684;DHT22;1858;48.716;9.648;2022-09-13T01:22:30;16.20;93.10
3684;DHT22;1858;48.716;9.648;2022-09-13T01:25:59;16.20;97.50
3684;DHT22;1858;48.716;9.648;2022-09-13T01:30:37;16.00;99.90
3684;DHT22;1858;48.716;9.648;2022-09-13T01:33:13;15.90;99.90
3684;DHT22;1858;48.716;9.648;2022-09-13T01:46:05;15.60;99.90
3684;DHT22;1858;48.716;9.648;2022-09-13T01:48:46;15.40;99.90
3684;DHT22;1858;48.716;9.648;2022-09-13T01:51:11;15.40;99.90
3684;DHT22;1858;48.716;9.648;2022-09-13T01:53:57;15.30;99.90
3684;DHT22;1858;48.716;9.648;2022-09-13T01:59:18;15.20;99.90
3684;DHT22;1858;48.716;9.648;2022-09-13T02:01:36;15.10;99.90
3684;DHT22;1858;48.716;9.648;2022-09-13T02:04:07;15.10;99.90
3684;DHT22;1858;48.716;9.648;2022-09-13T02:09:23;15.10;99.90
3684;DHT22;1858;48.716;9.648;2022-09-13T02:14:39;15.00;99.90
3684;DHT22;1858;48.716;9.648;2022-09-13T02:17:12;14.90;99.90
3684;DHT22;1858;48.716;9.648;2022-09-13T02:19:42;14.90;99.90
3684;DHT22;1858;48.716;9.648;2022-09-13T02:22:10;14.80;99.90
3684;DHT22;1858;48.716;9.648;2022-09-13T02:24:40;14.70;99.90
3684;DHT22;1858;48.716;9.648;2022-09-13T02:27:09;14.70;99.90
3684;DHT22;1858;48.716;9.648;2022-09-13T02:29:38;14.60;99.90
3684;DHT22;1858;48.716;9.648;2022-09-13T02:34:53;14.70;99.90
3684;DHT22;1858;48.716;9.648;2022-09-13T02:37:24;14.70;99.90
3684;DHT22;1858;48.716;9.648;2022-09-13T02:39:53;14.60;99.90
3684;DHT22;1858;48.716;9.648;2022-09-13T02:42:29;14.60;99.90
3684;DHT22;1858;48.716;9.648;2022-09-13T02:44:54;14.50;99.90
3684;DHT22;1858;48.716;9.648;2022-09-13T02:47:37;14.60;99.90
3684;DHT22;1858;48.716;9.648;2022-09-13T02:50:31;14.50;99.90
3684;DHT22;1858;48.716;9.648;2022-09-13T02:55:49;14.40;99.90
3684;DHT22;1858;48.716;9.648;2022-09-13T03:01:01;14.30;99.90
3684;DHT22;1858;48.716;9.648;2022-09-13T03:03:29;14.20;99.90
3684;DHT22;1858;48.716;9.648;2022-09-13T03:05:56;14.20;99.90
3684;DHT22;1858;48.716;9.648;2022-09-13T03:08:25;14.20;99.90
3684;DHT22;1858;48.716;9.648;2022-09-13T03:10:56;14.20;99.90
3684;DHT22;1858;48.716;9.648;2022-09-13T03:29:13;13.90;1.00
3684;DHT22;1858;48.716;9.648;2022-09-13T03:34:24;13.80;1.00
3684;DHT22;1858;48.716;9.648;2022-09-13T03:36:54;13.70;1.00
3684;DHT22;1858;48.716;9.648;2022-09-13T03:39:31;13.70;1.00
3684;DHT22;1858;48.716;9.648;2022-09-13T03:42:22;13.60;1.00
3684;DHT22;1858;48.716;9.648;2022-09-13T03:45:06;13.60;1.00
3684;DHT22;1858;48.716;9.648;2022-09-13T03:47:35;13.60;1.00
3684;DHT22;1858;48.716;9.648;2022-09-13T03:50:04;13.50;1.00
3684;DHT22;1858;48.716;9.648;2022-09-13T03:52:33;13.40;1.00
3684;DHT22;1858;48.716;9.648;2022-09-13T03:55:01;13.40;1.00
3684;DHT22;1858;48.716;9.648;2022-09-13T03:57:29;13.40;1.00
3684;DHT22;1858;48.716;9.648;2022-09-13T03:59:57;13.30;1.00
3684;DHT22;1858;48.716;9.648;2022-09-13T04:02:24;13.20;1.00
3684;DHT22;1858;48.716;9.648;2022-09-13T04:04:52;13.10;1.00
3684;DHT22;1858;48.716;9.648;2022-09-13T04:07:21;13.20;4.50
3684;DHT22;1858;48.716;9.648;2022-09-13T04:09:49;13.20;20.90
3684;DHT22;1858;48.716;9.648;2022-09-13T04:12:17;13.30;1.00
3684;DHT22;1858;48.716;9.648;2022-09-13T04:14:44;13.30;1.00
3684;DHT22;1858;48.716;9.648;2022-09-13T04:17:12;13.30;1.00
3684;DHT22;1858;48.716;9.648;2022-09-13T04:19:40;13.30;1.00
3684;DHT22;1858;48.716;9.648;2022-09-13T04:24:57;13.20;1.00
3684;DHT22;1858;48.716;9.648;2022-09-13T04:27:24;13.20;1.00
3684;DHT22;1858;48.716;9.648;2022-09-13T04:29:52;13.20;1.00
3684;DHT22;1858;48.716;9.648;2022-09-13T04:35:06;13.10;1.00
3684;DHT22;1858;48.716;9.648;2022-09-13T04:37:34;13.10;1.00
3684;DHT22;1858;48.716;9.648;2022-09-13T04:40:02;13.00;1.00
3684;DHT22;1858;48.716;9.648;2022-09-13T04:42:30;13.10;54.50
3684;DHT22;1858;48.716;9.648;2022-09-13T04:44:57;13.10;26.00
3684;DHT22;1858;48.716;9.648;2022-09-13T04:47:25;13.00;76.40
3684;DHT22;1858;48.716;9.648;2022-09-13T04:49:53;12.90;99.90
3684;DHT22;1858;48.716;9.648;2022-09-13T04:52:42;13.00;99.90
3684;DHT22;1858;48.716;9.648;2022-09-13T04:55:09;13.00;99.90
3684;DHT22;1858;48.716;9.648;2022-09-13T04:57:37;13.00;99.90
3684;DHT22;1858;48.716;9.648;2022-09-13T05:00:05;12.90;99.90
3684;DHT22;1858;48.716;9.648;2022-09-13T05:02:32;13.00;99.90
3684;DHT22;1858;48.716;9.648;2022-09-13T05:05:00;13.10;99.90
3684;DHT22;1858;48.716;9.648;2022-09-13T05:07:28;13.00;99.90
3684;DHT22;1858;48.716;9.648;2022-09-13T05:09:55;13.10;99.90
3684;DHT22;1858;48.716;9.648;2022-09-13T05:12:23;13.10;99.90
3684;DHT22;1858;48.716;9.648;2022-09-13T05:14:51;13.20;99.90
3684;DHT22;1858;48.716;9.648;2022-09-13T05:17:18;13.20;51.90
3684;DHT22;1858;48.716;9.648;2022-09-13T05:19:47;13.20;1.00
3684;DHT22;1858;48.716;9.648;2022-09-13T05:22:15;13.30;1.00
3684;DHT22;1858;48.716;9.648;2022-09-13T05:24:42;13.30;1.00
3684;DHT22;1858;48.716;9.648;2022-09-13T05:27:10;13.40;1.00
3684;DHT22;1858;48.716;9.648;2022-09-13T05:29:38;13.50;1.00
3684;DHT22;1858;48.716;9.648;2022-09-13T05:32:05;13.70;1.00
3684;DHT22;1858;48.716;9.648;2022-09-13T05:34:33;13.70;1.00
3684;DHT22;1858;48.716;9.648;2022-09-13T05:37:01;13.60;1.00
3684;DHT22;1858;48.716;9.648;2022-09-13T05:39:29;13.70;1.00
3684;DHT22;1858;48.716;9.648;2022-09-13T05:41:56;13.60;1.00
3684;DHT22;1858;48.716;9.648;2022-09-13T05:44:24;13.70;3.30
3684;DHT22;1858;48.716;9.648;2022-09-13T05:46:52;13.80;1.00
3684;DHT22;1858;48.716;9.648;2022-09-13T05:49:19;14.00;1.00
3684;DHT22;1858;48.716;9.648;2022-09-13T05:51:47;14.20;1.00
3684;DHT22;1858;48.716;9.648;2022-09-13T05:54:15;14.20;1.00
3684;DHT22;1858;48.716;9.648;2022-09-13T05:56:43;14.20;1.00
3684;DHT22;1858;48.716;9.648;2022-09-13T05:59:11;14.30;1.00
3684;DHT22;1858;48.716;9.648;2022-09-13T06:01:40;14.40;1.00
3684;DHT22;1858;48.716;9.648;2022-09-13T06:04:07;14.60;1.00
3684;DHT22;1858;48.716;9.648;2022-09-13T06:06:35;14.80;1.00
3684;DHT22;1858;48.716;9.648;2022-09-13T06:09:03;14.90;1.00
3684;DHT22;1858;48.716;9.648;2022-09-13T06:11:32;15.10;1.00
3684;DHT22;1858;48.716;9.648;2022-09-13T06:14:00;15.20;1.00
3684;DHT22;1858;48.716;9.648;2022-09-13T06:16:27;15.40;1.00
3684;DHT22;1858;48.716;9.648;2022-09-13T06:18:56;15.50;1.00
3684;DHT22;1858;48.716;9.648;2022-09-13T06:21:24;15.60;1.00
3684;DHT22;1858;48.716;9.648;2022-09-13T06:23:52;15.80;99.90
3684;DHT22;1858;48.716;9.648;2022-09-13T06:26:22;15.90;99.90
3684;DHT22;1858;48.716;9.648;2022-09-13T06:28:51;15.90;99.90
3684;DHT22;1858;48.716;9.648;2022-09-13T06:31:19;16.10;99.90
3684;DHT22;1858;48.716;9.648;2022-09-13T06:33:48;16.20;99.90
3684;DHT22;1858;48.716;9.648;2022-09-13T06:36:16;16.30;99.90
3684;DHT22;1858;48.716;9.648;2022-09-13T06:38:46;16.30;99.90
3684;DHT22;1858;48.716;9.648;2022-09-13T06:41:18;16.50;99.90
3684;DHT22;1858;48.716;9.648;2022-09-13T06:43:46;16.50;99.90
3684;DHT22;1858;48.716;9.648;2022-09-13T06:46:15;16.70;99.90
3684;DHT22;1858;48.716;9.648;2022-09-13T06:48:43;16.70;99.90
3684;DHT22;1858;48.716;9.648;2022-09-13T06:51:12;17.00;99.90
3684;DHT22;1858;48.716;9.648;2022-09-13T06:53:40;17.20;99.90
3684;DHT22;1858;48.716;9.648;2022-09-13T06:56:12;17.50;99.90
3684;DHT22;1858;48.716;9.648;2022-09-13T06:58:41;17.80;99.90
3684;DHT22;1858;48.716;9.648;2022-09-13T07:01:10;17.90;99.90
3684;DHT22;1858;48.716;9.648;2022-09-13T07:03:39;18.10;99.90
3684;DHT22;1858;48.716;9.648;2022-09-13T07:06:08;18.30;51.00
3684;DHT22;1858;48.716;9.648;2022-09-13T07:08:36;18.30;54.50
3684;DHT22;1858;48.716;9.648;2022-09-13T07:11:03;18.50;25.10
3684;DHT22;1858;48.716;9.648;2022-09-13T07:13:31;18.60;1.00
3684;DHT22;1858;48.716;9.648;2022-09-13T07:16:08;18.70;1.00
3684;DHT22;1858;48.716;9.648;2022-09-13T07:18:30;18.80;1.00
3684;DHT22;1858;48.716;9.648;2022-09-13T07:20:59;18.90;1.00
3684;DHT22;1858;48.716;9.648;2022-09-13T07:23:27;19.00;1.00
3684;DHT22;1858;48.716;9.648;2022-09-13T07:25:55;19.10;1.00
3684;DHT22;1858;48.716;9.648;2022-09-13T07:28:25;19.30;1.00
3684;DHT22;1858;48.716;9.648;2022-09-13T07:30:52;19.40;1.00
3684;DHT22;1858;48.716;9.648;2022-09-13T07:33:20;19.60;1.00
3684;DHT22;1858;48.716;9.648;2022-09-13T07:35:55;20.00;1.00
3684;DHT22;1858;48.716;9.648;2022-09-13T07:38:27;20.10;1.00
3684;DHT22;1858;48.716;9.648;2022-09-13T07:40:55;20.30;1.00
3684;DHT22;1858;48.716;9.648;2022-09-13T07:43:25;20.40;1.00
3684;DHT22;1858;48.716;9.648;2022-09-13T07:45:56;20.50;1.00
3684;DHT22;1858;48.716;9.648;2022-09-13T07:48:41;20.60;1.00
3684;DHT22;1858;48.716;9.648;2022-09-13T07:51:17;20.50;1.00
3684;DHT22;1858;48.716;9.648;2022-09-13T07:53:41;20.60;1.00
3684;DHT22;1858;48.716;9.648;2022-09-13T07:56:10;20.80;1.00
3684;DHT22;1858;48.716;9.648;2022-09-13T08:04:02;21.70;1.00
3684;DHT22;1858;48.716;9.648;2022-09-13T08:06:49;22.00;1.00
3684;DHT22;1858;48.716;9.648;2022-09-13T08:09:17;22.70;1.00
3684;DHT22;1858;48.716;9.648;2022-09-13T08:11:46;23.40;1.00
3684;DHT22;1858;48.716;9.648;2022-09-13T08:14:14;23.90;1.00
3684;DHT22;1858;48.716;9.648;2022-09-13T08:16:42;24.20;1.00
3684;DHT22;1858;48.716;9.648;2022-09-13T08:19:15;24.50;1.00
3684;DHT22;1858;48.716;9.648;2022-09-13T08:21:43;25.50;1.00
3684;DHT22;1858;48.716;9.648;2022-09-13T08:24:17;26.70;99.90
3684;DHT22;1858;48.716;9.648;2022-09-13T08:26:42;28.00;99.90
3684;DHT22;1858;48.716;9.648;2022-09-13T08:29:10;29.10;99.90
3684;DHT22;1858;48.716;9.648;2022-09-13T08:31:37;30.30;99.90
3684;DHT22;1858;48.716;9.648;2022-09-13T08:34:09;31.40;99.90
3684;DHT22;1858;48.716;9.648;2022-09-13T08:36:57;31.80;99.90
3684;DHT22;1858;48.716;9.648;2022-09-13T08:39:25;32.00;99.90
3684;DHT22;1858;48.716;9.648;2022-09-13T08:42:07;32.60;99.90
3684;DHT22;1858;48.716;9.648;2022-09-13T08:47:19;33.00;99.90
3684;DHT22;1858;48.716;9.648;2022-09-13T08:49:38;33.60;99.90
3684;DHT22;1858;48.716;9.648;2022-09-13T08:52:15;33.80;99.90
3684;DHT22;1858;48.716;9.648;2022-09-13T08:54:40;34.00;99.90
3684;DHT22;1858;48.716;9.648;2022-09-13T08:57:16;34.40;99.90
3684;DHT22;1858;48.716;9.648;2022-09-13T09:05:05;36.30;99.90
3684;DHT22;1858;48.716;9.648;2022-09-13T09:07:35;37.20;99.90
3684;DHT22;1858;48.716;9.648;2022-09-13T09:10:12;38.40;99.90
3684;DHT22;1858;48.716;9.648;2022-09-13T09:18:20;39.90;99.90
3684;DHT22;1858;48.716;9.648;2022-09-13T09:20:50;39.80;99.90
3684;DHT22;1858;48.716;9.648;2022-09-13T09:25:51;40.70;99.90
3684;DHT22;1858;48.716;9.648;2022-09-13T09:28:19;40.50;99.90
3684;DHT22;1858;48.716;9.648;2022-09-13T09:33:43;40.90;99.90
3684;DHT22;1858;48.716;9.648;2022-09-13T09:36:16;41.20;99.90
3684;DHT22;1858;48.716;9.648;2022-09-13T09:38:43;41.90;99.90
3684;DHT22;1858;48.716;9.648;2022-09-13T09:41:25;41.30;99.90
3684;DHT22;1858;48.716;9.648;2022-09-13T09:46:26;39.00;99.90
3684;DHT22;1858;48.716;9.648;2022-09-13T09:48:59;37.90;99.90
3684;DHT22;1858;48.716;9.648;2022-09-13T09:51:27;36.90;99.90
3684;DHT22;1858;48.716;9.648;2022-09-13T09:53:59;36.20;99.90
3684;DHT22;1858;48.716;9.648;2022-09-13T09:56:32;35.60;99.90
3684;DHT22;1858;48.716;9.648;2022-09-13T09:59:02;35.60;99.90
3684;DHT22;1858;48.716;9.648;2022-09-13T10:01:50;35.30;99.90
3684;DHT22;1858;48.716;9.648;2022-09-13T10:04:21;34.60;99.90
3684;DHT22;1858;48.716;9.648;2022-09-13T10:06:51;34.00;99.90
3684;DHT22;1858;48.716;9.648;2022-09-13T10:09:23;33.60;99.90
3684;DHT22;1858;48.716;9.648;2022-09-13T10:11:53;33.50;99.90
3684;DHT22;1858;48.716;9.648;2022-09-13T10:14:39;33.40;99.90
3684;DHT22;1858;48.716;9.648;2022-09-13T10:17:26;33.20;99.90
3684;DHT22;1858;48.716;9.648;2022-09-13T10:20:21;33.10;99.90
3684;DHT22;1858;48.716;9.648;2022-09-13T10:23:08;33.00;99.90
3684;DHT22;1858;48.716;9.648;2022-09-13T10:28:15;32.80;99.90
3684;DHT22;1858;48.716;9.648;2022-09-13T10:33:41;33.70;99.90
3684;DHT22;1858;48.716;9.648;2022-09-13T10:36:23;33.90;99.90
3684;DHT22;1858;48.716;9.648;2022-09-13T10:38:56;33.80;99.90
3684;DHT22;1858;48.716;9.648;2022-09-13T10:41:27;33.70;99.90
3684;DHT22;1858;48.716;9.648;2022-09-13T10:43:57;34.00;99.90
3684;DHT22;1858;48.716;9.648;2022-09-13T10:49:48;34.00;99.90
3684;DHT22;1858;48.716;9.648;2022-09-13T10:52:33;34.30;99.90
3684;DHT22;1858;48.716;9.648;2022-09-13T10:57:50;34.50;99.90
3684;DHT22;1858;48.716;9.648;2022-09-13T11:06:22;34.30;99.90
3684;DHT22;1858;48.716;9.648;2022-09-13T11:09:22;34.20;99.90
3684;DHT22;1858;48.716;9.648;2022-09-13T11:18:08;33.80;99.90
3684;DHT22;1858;48.716;9.648;2022-09-13T11:23:47;33.70;99.90
3684;DHT22;1858;48.716;9.648;2022-09-13T11:45:20;33.10;99.90
3684;DHT22;1858;48.716;9.648;2022-09-13T11:48:16;32.90;99.90
3684;DHT22;1858;48.716;9.648;2022-09-13T11:50:45;32.80;99.90
3684;DHT22;1858;48.716;9.648;2022-09-13T11:53:53;32.70;99.90
3684;DHT22;1858;48.716;9.648;2022-09-13T11:56:24;32.40;99.90
3684;DHT22;1858;48.716;9.648;2022-09-13T12:04:25;32.00;99.90
3684;DHT22;1858;48.716;9.648;2022-09-13T12:07:03;31.70;99.90
3684;DHT22;1858;48.716;9.648;2022-09-13T12:09:34;31.60;99.90
3684;DHT22;1858;48.716;9.648;2022-09-13T12:12:10;31.60;99.90
3684;DHT22;1858;48.716;9.648;2022-09-13T12:17:26;31.80;99.90
3684;DHT22;1858;48.716;9.648;2022-09-13T12:20:19;31.90;99.90
3684;DHT22;1858;48.716;9.648;2022-09-13T12:22:45;31.90;99.90
3684;DHT22;1858;48.716;9.648;2022-09-13T12:25:24;31.90;99.90
3684;DHT22;1858;48.716;9.648;2022-09-13T12:28:05;31.90;99.90
3684;DHT22;1858;48.716;9.648;2022-09-13T12:30:36;31.80;99.90
3684;DHT22;1858;48.716;9.648;2022-09-13T12:33:00;31.60;99.90
3684;DHT22;1858;48.716;9.648;2022-09-13T12:35:33;31.30;99.90
3684;DHT22;1858;48.716;9.648;2022-09-13T12:41:00;31.10;99.90
3684;DHT22;1858;48.716;9.648;2022-09-13T12:46:35;31.10;99.90
3684;DHT22;1858;48.716;9.648;2022-09-13T12:58:02;31.20;99.90
3684;DHT22;1858;48.716;9.648;2022-09-13T13:00:36;31.20;99.90
3684;DHT22;1858;48.716;9.648;2022-09-13T13:03:13;30.90;99.90
3684;DHT22;1858;48.716;9.648;2022-09-13T13:05:44;30.90;99.90
3684;DHT22;1858;48.716;9.648;2022-09-13T13:08:23;30.90;99.90
3684;DHT22;1858;48.716;9.648;2022-09-13T13:13:55;31.10;99.90
3684;DHT22;1858;48.716;9.648;2022-09-13T13:16:29;31.10;99.90
3684;DHT22;1858;48.716;9.648;2022-09-13T13:19:26;31.10;99.90
3684;DHT22;1858;48.716;9.648;2022-09-13T13:21:37;31.20;99.90
3684;DHT22;1858;48.716;9.648;2022-09-13T13:27:19;31.40;99.90
3684;DHT22;1858;48.716;9.648;2022-09-13T13:29:37;31.30;99.90
3684;DHT22;1858;48.716;9.648;2022-09-13T13:32:11;31.20;99.90
3684;DHT22;1858;48.716;9.648;2022-09-13T13:34:42;31.10;99.90
3684;DHT22;1858;48.716;9.648;2022-09-13T13:39:46;31.00;99.90
3684;DHT22;1858;48.716;9.648;2022-09-13T13:45:19;30.90;99.90
3684;DHT22;1858;48.716;9.648;2022-09-13T13:48:08;30.80;99.90
3684;DHT22;1858;48.716;9.648;2022-09-13T13:53:33;30.60;99.90
3684;DHT22;1858;48.716;9.648;2022-09-13T13:56:16;30.30;99.90
3684;DHT22;1858;48.716;9.648;2022-09-13T14:01:36;30.30;99.90
3684;DHT22;1858;48.716;9.648;2022-09-13T14:04:39;30.30;99.90
3684;DHT22;1858;48.716;9.648;2022-09-13T14:07:23;30.20;99.90
3684;DHT22;1858;48.716;9.648;2022-09-13T14:10:16;30.40;99.90
3684;DHT22;1858;48.716;9.648;2022-09-13T14:12:59;30.40;99.90
3684;DHT22;1858;48.716;9.648;2022-09-13T14:15:39;30.60;99.90
3684;DHT22;1858;48.716;9.648;2022-09-13T14:18:23;30.70;99.90
3684;DHT22;1858;48.716;9.648;2022-09-13T14:20:59;30.60;99.90
3684;DHT22;1858;48.716;9.648;2022-09-13T14:23:29;30.50;99.90
3684;DHT22;1858;48.716;9.648;2022-09-13T14:26:00;30.50;99.90
3684;DHT22;1858;48.716;9.648;2022-09-13T14:28:29;30.30;99.90
3684;DHT22;1858;48.716;9.648;2022-09-13T14:31:18;30.20;99.90
3684;DHT22;1858;48.716;9.648;2022-09-13T14:33:47;30.00;99.90
3684;DHT22;1858;48.716;9.648;2022-09-13T14:36:22;29.90;99.90
3684;DHT22;1858;48.716;9.648;2022-09-13T14:38:53;29.80;99.90
3684;DHT22;1858;48.716;9.648;2022-09-13T14:41:28;29.70;99.90
3684;DHT22;1858;48.716;9.648;2022-09-13T14:43:51;29.70;99.90
3684;DHT22;1858;48.716;9.648;2022-09-13T14:46:40;29.80;99.90
3684;DHT22;1858;48.716;9.648;2022-09-13T14:49:14;29.80;99.90
3684;DHT22;1858;48.716;9.648;2022-09-13T14:52:05;29.80;99.90
3684;DHT22;1858;48.716;9.648;2022-09-13T14:54:38;29.80;99.90
3684;DHT22;1858;48.716;9.648;2022-09-13T14:57:35;29.80;99.90
3684;DHT22;1858;48.716;9.648;2022-09-13T15:05:34;29.70;99.90
3684;DHT22;1858;48.716;9.648;2022-09-13T15:08:25;29.70;99.90
3684;DHT22;1858;48.716;9.648;2022-09-13T15:10:56;29.70;99.90
3684;DHT22;1858;48.716;9.648;2022-09-13T15:13:25;29.60;99.90
3684;DHT22;1858;48.716;9.648;2022-09-13T15:15:54;29.60;99.90
3684;DHT22;1858;48.716;9.648;2022-09-13T15:18:30;29.70;99.90
3684;DHT22;1858;48.716;9.648;2022-09-13T15:21:17;29.70;99.90
3684;DHT22;1858;48.716;9.648;2022-09-13T15:23:49;29.70;99.90
3684;DHT22;1858;48.716;9.648;2022-09-13T15:26:23;29.60;99.90
3684;DHT22;1858;48.716;9.648;2022-09-13T15:28:59;29.60;99.90
3684;DHT22;1858;48.716;9.648;2022-09-13T15:31:33;29.50;99.90
3684;DHT22;1858;48.716;9.648;2022-09-13T15:37:12;29.30;99.90
3684;DHT22;1858;48.716;9.648;2022-09-13T15:39:48;29.20;99.90
3684;DHT22;1858;48.716;9.648;2022-09-13T15:42:19;29.10;99.90
3684;DHT22;1858;48.716;9.648;2022-09-13T15:45:07;28.90;99.90
3684;DHT22;1858;48.716;9.648;2022-09-13T15:47:55;28.70;99.90
3684;DHT22;1858;48.716;9.648;2022-09-13T15:50:26;28.60;99.90
3684;DHT22;1858;48.716;9.648;2022-09-13T15:53:00;28.40;99.90
3684;DHT22;1858;48.716;9.648;2022-09-13T15:55:30;28.30;99.90
3684;DHT22;1858;48.716;9.648;2022-09-13T15:57:58;28.20;99.90
3684;DHT22;1858;48.716;9.648;2022-09-13T16:00:27;28.20;99.90
3684;DHT22;1858;48.716;9.648;2022-09-13T16:02:56;28.10;99.90
3684;DHT22;1858;48.716;9.648;2022-09-13T16:05:28;28.00;99.90
3684;DHT22;1858;48.716;9.648;2022-09-13T16:07:59;28.00;99.90
3684;DHT22;1858;48.716;9.648;2022-09-13T16:10:28;27.90;99.90
3684;DHT22;1858;48.716;9.648;2022-09-13T16:12:57;27.80;99.90
3684;DHT22;1858;48.716;9.648;2022-09-13T16:15:25;27.60;99.90
3684;DHT22;1858;48.716;9.648;2022-09-13T16:17:54;27.50;99.90
3684;DHT22;1858;48.716;9.648;2022-09-13T16:20:23;27.30;99.90
3684;DHT22;1858;48.716;9.648;2022-09-13T16:22:53;27.20;99.90
3684;DHT22;1858;48.716;9.648;2022-09-13T16:25:23;27.10;99.90
3684;DHT22;1858;48.716;9.648;2022-09-13T16:27:51;27.00;99.90
3684;DHT22;1858;48.716;9.648;2022-09-13T16:30:21;26.90;99.90
3684;DHT22;1858;48.716;9.648;2022-09-13T16:32:50;26.80;99.90
3684;DHT22;1858;48.716;9.648;2022-09-13T16:35:18;26.70;99.90
3684;DHT22;1858;48.716;9.648;2022-09-13T16:37:47;26.70;99.90
3684;DHT22;1858;48.716;9.648;2022-09-13T16:40:17;26.50;99.90
3684;DHT22;1858;48.716;9.648;2022-09-13T16:42:46;26.40;99.90
3684;DHT22;1858;48.716;9.648;2022-09-13T16:45:14;26.30;99.90
3684;DHT22;1858;48.716;9.648;2022-09-13T16:47:43;26.20;99.90
3684;DHT22;1858;48.716;9.648;2022-09-13T16:50:12;26.10;99.90
3684;DHT22;1858;48.716;9.648;2022-09-13T16:52:40;26.00;99.90
3684;DHT22;1858;48.716;9.648;2022-09-13T16:55:09;25.90;99.90
3684;DHT22;1858;48.716;9.648;2022-09-13T16:57:38;25.80;99.90
3684;DHT22;1858;48.716;9.648;2022-09-13T17:00:08;25.70;99.90
3684;DHT22;1858;48.716;9.648;2022-09-13T17:02:38;25.70;99.90
3684;DHT22;1858;48.716;9.648;2022-09-13T17:05:08;25.60;99.90
3684;DHT22;1858;48.716;9.648;2022-09-13T17:07:38;25.60;99.90
3684;DHT22;1858;48.716;9.648;2022-09-13T17:10:07;25.60;99.90
3684;DHT22;1858;48.716;9.648;2022-09-13T17:12:36;25.60;99.90
3684;DHT22;1858;48.716;9.648;2022-09-13T17:15:06;25.40;99.90
3684;DHT22;1858;48.716;9.648;2022-09-13T17:17:35;25.40;99.90
3684;DHT22;1858;48.716;9.648;2022-09-13T17:20:06;25.40;99.90
3684;DHT22;1858;48.716;9.648;2022-09-13T17:22:36;25.30;99.90
3684;DHT22;1858;48.716;9.648;2022-09-13T17:25:05;25.20;99.90
3684;DHT22;1858;48.716;9.648;2022-09-13T17:27:34;25.10;99.90
3684;DHT22;1858;48.716;9.648;2022-09-13T17:30:03;25.00;99.90
3684;DHT22;1858;48.716;9.648;2022-09-13T17:32:32;25.10;99.90
3684;DHT22;1858;48.716;9.648;2022-09-13T17:35:00;25.00;99.90
3684;DHT22;1858;48.716;9.648;2022-09-13T17:37:28;24.90;99.90
3684;DHT22;1858;48.716;9.648;2022-09-13T17:39:57;24.80;99.90
3684;DHT22;1858;48.716;9.648;2022-09-13T17:42:26;24.70;99.90
3684;DHT22;1858;48.716;9.648;2022-09-13T17:44:54;24.70;99.90
3684;DHT22;1858;48.716;9.648;2022-09-13T17:47:23;24.70;99.90
3684;DHT22;1858;48.716;9.648;2022-09-13T17:49:52;24.60;99.90
3684;DHT22;1858;48.716;9.648;2022-09-13T17:52:20;24.60;99.90
3684;DHT22;1858;48.716;9.648;2022-09-13T17:54:49;24.50;99.90
3684;DHT22;1858;48.716;9.648;2022-09-13T17:57:17;24.40;99.90
3684;DHT22;1858;48.716;9.648;2022-09-13T17:59:47;24.30;99.90
3684;DHT22;1858;48.716;9.648;2022-09-13T18:02:15;24.30;99.90
3684;DHT22;1858;48.716;9.648;2022-09-13T18:04:44;24.20;99.90
3684;DHT22;1858;48.716;9.648;2022-09-13T18:07:12;24.20;99.90
3684;DHT22;1858;48.716;9.648;2022-09-13T18:09:41;24.20;99.90
3684;DHT22;1858;48.716;9.648;2022-09-13T18:12:10;24.20;99.90
3684;DHT22;1858;48.716;9.648;2022-09-13T18:14:38;24.10;99.90
3684;DHT22;1858;48.716;9.648;2022-09-13T18:17:07;24.10;99.90
3684;DHT22;1858;48.716;9.648;2022-09-13T18:19:42;24.00;99.90
3684;DHT22;1858;48.716;9.648;2022-09-13T18:22:10;24.00;99.90
3684;DHT22;1858;48.716;9.648;2022-09-13T18:24:38;23.90;99.90
3684;DHT22;1858;48.716;9.648;2022-09-13T18:27:07;23.80;99.90
3684;DHT22;1858;48.716;9.648;2022-09-13T18:29:37;23.80;99.90
3684;DHT22;1858;48.716;9.648;2022-09-13T18:32:06;23.70;99.90
3684;DHT22;1858;48.716;9.648;2022-09-13T18:34:34;23.70;99.90
3684;DHT22;1858;48.716;9.648;2022-09-13T18:37:03;23.60;99.90
3684;DHT22;1858;48.716;9.648;2022-09-13T18:39:31;23.50;99.90
3684;DHT22;1858;48.716;9.648;2022-09-13T18:42:00;23.40;99.90
3684;DHT22;1858;48.716;9.648;2022-09-13T18:44:29;23.40;99.90
3684;DHT22;1858;48.716;9.648;2022-09-13T18:46:59;23.30;99.90
3684;DHT22;1858;48.716;9.648;2022-09-13T18:49:29;23.30;99.90
3684;DHT22;1858;48.716;9.648;2022-09-13T18:51:59;23.20;99.90
3684;DHT22;1858;48.716;9.648;2022-09-13T18:54:28;23.10;99.90
3684;DHT22;1858;48.716;9.648;2022-09-13T18:56:56;23.00;99.90
3684;DHT22;1858;48.716;9.648;2022-09-13T18:59:26;23.00;99.90
3684;DHT22;1858;48.716;9.648;2022-09-13T19:01:56;22.90;99.90
3684;DHT22;1858;48.716;9.648;2022-09-13T19:04:25;22.90;99.90
3684;DHT22;1858;48.716;9.648;2022-09-13T19:06:54;22.80;99.90
3684;DHT22;1858;48.716;9.648;2022-09-13T19:09:23;22.70;99.90
3684;DHT22;1858;48.716;9.648;2022-09-13T19:11:52;22.70;99.90
3684;DHT22;1858;48.716;9.648;2022-09-13T19:14:26;22.60;99.90
3684;DHT22;1858;48.716;9.648;2022-09-13T19:16:58;22.60;99.90
3684;DHT22;1858;48.716;9.648;2022-09-13T19:19:32;22.50;99.90
3684;DHT22;1858;48.716;9.648;2022-09-13T19:22:01;22.50;99.90
3684;DHT22;1858;48.716;9.648;2022-09-13T19:24:31;22.40;99.90
3684;DHT22;1858;48.716;9.648;2022-09-13T19:27:01;22.40;99.90
3684;DHT22;1858;48.716;9.648;2022-09-13T19:29:30;22.30;99.90
3684;DHT22;1858;48.716;9.648;2022-09-13T19:31:58;22.30;99.90
3684;DHT22;1858;48.716;9.648;2022-09-13T19:34:27;22.20;99.90